Latest Coastal Weather Observations for Frankston

IDV60701

Issued at 2:05 pm EST Wednesday 16 April 2014 (issued every 10 minutes, with the page automatically refreshed every 10 minutes)

About coastal observations | Map of coastal stations | Coastal observations for VIC | Marine services | Other Formats
Station Details ID: 086371 Name: FRANKSTON AWS Lat: -38.15 Lon: 145.12 Height: 6.0 m
Data from the previous 72 hours. | See also: Recent months at Frankston
Date/Time
EST
Temp

°C
Wind Pressure Rain
since 9am
mm
Weather Cloud Vis
km
Sea
Height
m
Swell
Dir
 
Speed
knots
Gust
knots
hPa Trend Height
m
Period
s
Dir
16/02:00pm 16.7 WSW 4 5 - - - - - - - - - -
16/01:30pm 16.0 W 5 5 - - - - - - - - - -
16/01:00pm 15.6 W 3 4 - - - - - - - - - -
16/12:30pm 15.1 WNW 4 5 - - - - - - - - - -
16/12:00pm 14.6 WNW 2 3 - - - - - - - - - -
16/11:30am 14.4 WNW 2 2 - - - - - - - - - -
16/11:00am 13.8 NNW 3 4 - - - - - - - - - -
16/10:30am 13.0 NE 2 5 - - - - - - - - - -
16/10:00am 12.5 NE 3 6 - - - - - - - - - -
16/09:30am 11.7 NNE 2 4 - - - - - - - - - -
16/09:00am 10.9 E 2 3 - - - - - - - - - -
16/08:30am 9.8 E 3 5 - - - - - - - - - -
16/08:00am 9.2 E 4 6 - - - - - - - - - -
16/07:30am 9.2 E 4 5 - - - - - - - - - -
16/07:00am 10.3 E 3 6 - - - - - - - - - -
16/06:30am 10.7 E 4 6 - - - - - - - - - -
16/06:00am 11.3 E 4 5 - - - - - - - - - -
16/05:30am 11.4 E 3 5 - - - - - - - - - -
16/05:00am 11.7 E 3 4 - - - - - - - - - -
16/04:30am 12.0 E 4 5 - - - - - - - - - -
16/04:00am 12.1 E 3 5 - - - - - - - - - -
16/03:30am 12.0 E 4 5 - - - - - - - - - -
16/03:00am 12.1 E 3 5 - - - - - - - - - -
16/02:30am 12.5 E 4 6 - - - - - - - - - -
16/02:00am 13.0 E 3 6 - - - - - - - - - -
16/01:30am 13.4 ESE 6 10 - - - - - - - - - -
16/01:00am 13.5 ESE 6 10 - - - - - - - - - -
16/12:30am 13.8 ESE 6 12 - - - - - - - - - -
16/12:00am 14.0 ESE 7 10 - - - - - - - - - -
 
Date/Time
EST
Temp

°C
Wind Pressure Rain
since 9am
mm
Weather Cloud Vis
km
Sea
Height
m
Swell
Dir
 
Speed
knots
Gust
knots
hPa Trend Height
m
Period
s
Dir
15/11:30pm 14.2 ESE 7 14 - - - - - - - - - -
15/11:00pm 14.4 ESE 7 12 - - - - - - - - - -
15/10:30pm 14.7 ESE 7 11 - - - - - - - - - -
15/10:00pm 14.9 ESE 7 13 - - - - - - - - - -
15/09:30pm 15.1 ESE 7 16 - - - - - - - - - -
15/09:00pm 15.4 ESE 7 13 - - - - - - - - - -
15/08:30pm 15.5 ESE 5 9 - - - - - - - - - -
15/08:00pm 15.4 ESE 3 7 - - - - - - - - - -
15/07:30pm 15.7 SE 3 5 - - - - - - - - - -
15/07:00pm 16.1 SSE 4 9 - - - - - - - - - -
15/06:30pm 16.5 S 4 7 - - - - - - - - - -
15/06:00pm 16.8 S 4 8 - - - - - - - - - -
15/05:30pm 17.3 S 6 11 - - - - - - - - - -
15/05:00pm 17.6 S 8 13 - - - - - - - - - -
15/04:30pm 18.6 S 6 15 - - - - - - - - - -
15/04:00pm 18.8 SSE 5 12 - - - - - - - - - -
15/03:30pm 19.1 SSE 6 11 - - - - - - - - - -
15/03:00pm 20.2 SSE 6 12 - - - - - - - - - -
15/02:30pm 19.2 SSE 6 11 - - - - - - - - - -
15/02:00pm 19.7 SSE 6 10 - - - - - - - - - -
15/01:30pm 19.6 SSE 6 12 - - - - - - - - - -
15/01:00pm 19.2 S 5 12 - - - - - - - - - -
15/12:30pm 18.8 ESE 6 11 - - - - - - - - - -
15/12:00pm 18.8 ESE 6 10 - - - - - - - - - -
15/11:30am 18.1 ESE 6 10 - - - - - - - - - -
15/11:00am 18.0 SE 6 12 - - - - - - - - - -
15/10:30am 17.4 SE 5 10 - - - - - - - - - -
15/10:00am 16.3 SE 5 7 - - - - - - - - - -
15/09:30am 16.2 SE 3 8 - - - - - - - - - -
15/09:00am 15.4 SE 4 9 - - - - - - - - - -
15/08:30am 15.2 ESE 1 3 - - - - - - - - - -
15/08:00am 14.2 SE 2 4 - - - - - - - - - -
15/07:30am 12.7 SSE 1 3 - - - - - - - - - -
15/07:00am 12.1 SSE 2 4 - - - - - - - - - -
15/06:30am 12.3 SSE 2 4 - - - - - - - - - -
15/06:00am 12.5 SE 2 4 - - - - - - - - - -
15/05:30am 12.4 SE 3 5 - - - - - - - - - -
15/05:00am 11.8 CALM 0 0 - - - - - - - - - -
15/04:30am 11.7 CALM 0 1 - - - - - - - - - -
15/04:00am 12.1 S 2 3 - - - - - - - - - -
15/03:30am 12.2 SSE 2 3 - - - - - - - - - -
15/03:00am 12.4 SSE 2 3 - - - - - - - - - -
15/02:30am 12.5 CALM 0 2 - - - - - - - - - -
15/02:00am 13.0 SSE 2 3 - - - - - - - - - -
15/01:30am 13.0 ESE 3 4 - - - - - - - - - -
15/01:00am 12.8 ESE 2 3 - - - - - - - - - -
15/12:30am 12.9 SE 2 3 - - - - - - - - - -
15/12:00am 13.1 SSE 2 4 - - - - - - - - - -
 
Date/Time
EST
Temp

°C
Wind Pressure Rain
since 9am
mm
Weather Cloud Vis
km
Sea
Height
m
Swell
Dir
 
Speed
knots
Gust
knots
hPa Trend Height
m
Period
s
Dir
14/11:30pm 13.2 SE 1 2 - - - - - - - - - -
14/11:00pm 13.1 SSE 2 3 - - - - - - - - - -
14/10:30pm 13.3 SSE 2 3 - - - - - - - - - -
14/10:00pm 13.7 SSE 2 3 - - - - - - - - - -
14/09:30pm 14.0 S 3 5 - - - - - - - - - -
14/09:00pm 14.3 S 3 5 - - - - - - - - - -
14/08:30pm 14.4 S 3 5 - - - - - - - - - -
14/08:00pm 14.7 S 4 6 - - - - - - - - - -
14/07:30pm 15.1 S 4 7 - - - - - - - - - -
14/07:00pm 15.5 S 4 7 - - - - - - - - - -
14/06:30pm 16.0 S 3 5 - - - - - - - - - -
14/06:00pm 16.7 S 4 7 - - - - - - - - - -
14/05:30pm 17.5 S 5 8 - - - - - - - - - -
14/05:00pm 18.0 S 6 10 - - - - - - - - - -
14/04:30pm 18.3 S 6 10 - - - - - - - - - -
14/04:00pm 18.7 S 6 12 - - - - - - - - - -
14/03:30pm 18.9 SSE 5 11 - - - - - - - - - -
14/03:00pm 19.0 SSE 6 12 - - - - - - - - - -
14/02:30pm 19.1 SSE 5 10 - - - - - - - - - -
14/02:00pm 18.9 SE 6 10 - - - - - - - - - -
14/01:30pm 18.9 SE 6 12 - - - - - - - - - -
14/01:00pm 18.8 SSE 7 14 - - - - - - - - - -
14/12:30pm 18.9 ESE 7 12 - - - - - - - - - -
14/12:00pm 18.4 SE 6 10 - - - - - - - - - -
14/11:30am 17.7 E 7 13 - - - - - - - - - -
14/11:00am 17.7 ESE 6 11 - - - - - - - - - -
14/10:30am 17.1 SSE 8 13 - - - - - - - - - -
14/10:00am 16.5 SE 8 13 - - - - - - - - - -
14/09:30am 16.2 SE 6 10 - - - - - - - - - -
14/09:00am 15.5 SSE 4 8 - - - - - - - - - -
14/08:30am 14.7 SSE 3 6 - - - - - - - - - -
14/08:00am 13.5 SSE 2 5 - - - - - - - - - -
14/07:30am 12.5 S 2 4 - - - - - - - - - -
14/07:00am 12.0 S 2 4 - - - - - - - - - -
14/06:30am 12.1 SSE 3 4 - - - - - - - - - -
14/06:00am 11.8 S 3 4 - - - - - - - - - -
14/05:30am 11.9 S 2 4 - - - - - - - - - -
14/05:00am 12.0 S 2 3 - - - - - - - - - -
14/04:30am 12.2 S 2 3 - - - - - - - - - -
14/04:00am 12.3 S 2 3 - - - - - - - - - -
14/03:30am 12.5 S 3 5 - - - - - - - - - -
14/03:00am 12.4 S 3 4 - - - - - - - - - -
14/02:30am 12.6 S 3 4 - - - - - - - - - -
14/02:00am 12.7 S 3 5 - - - - - - - - - -
14/01:30am 12.9 S 3 5 - - - - - - - - - -
14/01:00am 13.0 S 3 5 - - - - - - - - - -
14/12:30am 13.3 SSE 4 8 - - - - - - - - - -
14/12:00am 13.4 SSE 5 8 - - - - - - - - - -
 
Date/Time
EST
Temp

°C
Wind Pressure Rain
since 9am
mm
Weather Cloud Vis
km
Sea
Height
m
Swell
Dir
 
Speed
knots
Gust
knots
hPa Trend Height
m
Period
s
Dir
13/11:30pm 13.8 SSE 5 11 - - - - - - - - - -
13/11:00pm 13.8 SE 4 9 - - - - - - - - - -
13/10:30pm 14.1 SSE 4 9 - - - - - - - - - -
13/10:00pm 14.3 SSE 5 9 - - - - - - - - - -
13/09:30pm 14.5 SE 5 9 - - - - - - - - - -
13/09:00pm 14.6 SE 5 10 - - - - - - - - - -
13/08:30pm 14.8 SE 5 8 - - - - - - - - - -
13/08:00pm 15.0 SSE 5 10 - - - - - - - - - -
13/07:30pm 15.0 SSE 4 8 - - - - - - - - - -
13/07:00pm 15.3 SSE 4 8 - - - - - - - - - -
13/06:30pm 15.6 SSE 4 8 - - - - - - - - - -
13/06:00pm 16.2 SE 4 11 - - - - - - - - - -
13/05:30pm 16.8 S 6 11 - - - - - - - - - -
13/05:00pm 17.4 S 6 15 - - - - - - - - - -
13/04:30pm 17.8 S 8 15 - - - - - - - - - -
13/04:00pm 18.1 S 8 15 - - - - - - - - - -
13/03:30pm 18.6 S 7 12 - - - - - - - - - -
13/03:00pm 19.0 S 7 12 - - - - - - - - - -
13/02:30pm 19.4 SSE 7 13 - - - - - - - - - -

Other Formats:

Comma delimited format used in spreadsheet applications
http://www.bom.gov.au/fwo/IDV60701/IDV60701.94871.axf

JavaScript Object Notation format (JSON) in row-major order
http://www.bom.gov.au/fwo/IDV60701/IDV60701.94871.json